KJOT/JOT METAR and TAF weather

Enter ICAO airport designator
Station Type Date Time Source
KJOT METAR 2021/06/24 06:35 UTC NOAA

KJOT 240635Z AUTO 18007KT 10SM CLR 21/13 A3002 RMK AO2 T02100130


Station Type Date Time Source
KJOT Decoded METAR 2021/06/24 06:35 UTC NOAA

Joliet, Joliet Regional Airport, IL, United States (KJOT) 41-31-05N 088-10-31W
Jun 24, 2021 - 02:35 AM EDT / 2021.06.24 0635 UTC
Wind: from the S (180 degrees) at 8 MPH (7 KT):0
Visibility: 10 mile(s):0
Sky conditions: clear
Temperature: 69.8 F (21.0 C)
Dew Point: 55.4 F (13.0 C)
Relative Humidity: 60%
Pressure (altimeter): 30.02 in. Hg (1016 hPa)
ob: KJOT 240635Z AUTO 18007KT 10SM CLR 21/13 A3002 RMK AO2 T02100130
cycle: 6

Station Type Date Time Source
KJOT TAF UTC NOAA

Error!

Example: see airport list